Time;durP1;ratioP1;P1;durP2;ratioP2;P2;SDS_P1;SDS_P2;PMS_P1;PMS_P2;Temp;Humidity;BMP_temperature;BMP_pressure;BME280_temperature;BME280_humidity;BME280_pressure;Samples;Min_cycle;Max_cycle;Signal;HPM_P1;HPM_P2
2023/06/06 00:00:06;;;;;;;7.97;3.58;;;15.00;60.10;;;;;;4951350;28;20466;-76
2023/06/06 00:02:42;;;;;;;9.05;4.10;;;15.00;60.20;;;;;;4984071;28;20050;-76
2023/06/06 00:05:11;;;;;;;7.07;3.37;;;15.00;60.20;;;;;;4983894;28;20086;-76
2023/06/06 00:07:39;;;;;;;8.32;3.45;;;15.00;60.40;;;;;;4977360;28;20386;-76
2023/06/06 00:10:09;;;;;;;8.38;3.55;;;14.90;60.40;;;;;;4984900;28;20057;-76
2023/06/06 00:12:37;;;;;;;9.30;3.60;;;14.90;60.70;;;;;;4963310;28;20134;-76
2023/06/06 00:15:05;;;;;;;8.55;3.45;;;14.90;60.70;;;;;;4979406;28;20449;-76
2023/06/06 00:17:33;;;;;;;8.97;3.53;;;14.80;60.90;;;;;;4980881;28;21044;-76
2023/06/06 00:20:01;;;;;;;7.47;3.65;;;14.80;61.00;;;;;;4983404;28;20256;-76
2023/06/06 00:22:28;;;;;;;9.07;3.75;;;14.70;61.10;;;;;;4982388;28;20052;-76
2023/06/06 00:24:55;;;;;;;8.57;3.97;;;14.70;61.30;;;;;;4964176;28;20154;-76
2023/06/06 00:27:23;;;;;;;7.72;3.92;;;14.70;61.30;;;;;;4986574;28;20055;-76
2023/06/06 00:29:50;;;;;;;6.90;3.50;;;14.60;61.40;;;;;;4935693;28;20074;-76
2023/06/06 00:32:18;;;;;;;8.63;3.65;;;14.60;61.40;;;;;;4960150;28;20728;-76
2023/06/06 00:34:45;;;;;;;8.27;4.00;;;14.60;61.50;;;;;;4966894;28;20081;-76
2023/06/06 00:37:12;;;;;;;9.93;4.00;;;14.60;61.50;;;;;;4979307;28;21001;-75
2023/06/06 00:39:39;;;;;;;8.35;4.03;;;14.60;61.50;;;;;;4966674;28;20240;-76
2023/06/06 00:42:06;;;;;;;7.23;3.80;;;14.50;61.50;;;;;;4963094;28;20066;-76
2023/06/06 00:44:34;;;;;;;8.10;3.80;;;14.50;61.60;;;;;;4979367;28;20282;-76
2023/06/06 00:47:02;;;;;;;7.45;3.33;;;14.50;61.60;;;;;;4945718;28;20496;-76
2023/06/06 00:49:30;;;;;;;8.43;3.80;;;14.50;61.60;;;;;;4964926;28;20139;-76
2023/06/06 00:51:59;;;;;;;8.85;3.75;;;14.40;61.50;;;;;;4983507;28;20164;-76
2023/06/06 00:54:25;;;;;;;9.33;4.10;;;14.40;61.50;;;;;;4983747;28;20180;-76
2023/06/06 00:56:54;;;;;;;9.45;3.90;;;14.40;61.60;;;;;;4967218;28;20275;-76
2023/06/06 00:59:22;;;;;;;10.57;4.38;;;14.40;61.70;;;;;;4962830;28;20047;-76
2023/06/06 01:01:51;;;;;;;8.73;3.58;;;14.40;61.80;;;;;;4967587;28;20058;-76
2023/06/06 01:04:20;;;;;;;8.02;4.00;;;14.30;61.80;;;;;;4986864;28;20055;-76
2023/06/06 01:06:49;;;;;;;6.70;3.20;;;14.30;61.80;;;;;;4970755;28;20426;-76
2023/06/06 01:09:16;;;;;;;7.80;3.65;;;14.30;61.80;;;;;;4987001;28;20681;-76
2023/06/06 01:11:53;;;;;;;7.30;3.72;;;14.30;61.80;;;;;;4986207;28;20058;-76
2023/06/06 01:14:26;;;;;;;8.75;4.07;;;14.20;61.90;;;;;;4985993;28;20480;-76
2023/06/06 01:16:57;;;;;;;9.55;3.90;;;14.20;61.80;;;;;;4969379;28;20074;-76
2023/06/06 01:19:29;;;;;;;8.37;3.90;;;14.20;61.80;;;;;;4969338;28;20160;-76
2023/06/06 01:21:59;;;;;;;7.72;3.72;;;14.10;61.80;;;;;;4971386;28;20259;-76
2023/06/06 01:24:27;;;;;;;9.25;3.75;;;14.10;62.00;;;;;;4986475;28;20047;-76
2023/06/06 01:26:54;;;;;;;9.23;3.35;;;14.10;61.90;;;;;;4970451;28;20074;-76
2023/06/06 01:29:21;;;;;;;9.00;4.05;;;14.10;61.90;;;;;;4943816;28;20055;-76
2023/06/06 01:31:56;;;;;;;7.83;3.63;;;14.00;62.00;;;;;;4983485;28;20055;-76
2023/06/06 01:34:30;;;;;;;9.02;4.00;;;14.00;62.20;;;;;;4946513;28;20358;-76
2023/06/06 01:37:11;;;;;;;7.90;4.00;;;14.00;62.30;;;;;;4967559;28;20051;-76
2023/06/06 01:39:41;;;;;;;9.82;3.92;;;13.90;62.20;;;;;;4964934;28;20059;-76
2023/06/06 01:42:09;;;;;;;10.52;4.38;;;13.90;62.20;;;;;;4958483;28;20106;-76
2023/06/06 01:44:38;;;;;;;9.20;4.30;;;13.90;62.30;;;;;;4978883;28;20050;-76
2023/06/06 01:47:07;;;;;;;8.60;3.88;;;13.90;62.50;;;;;;4980483;28;20751;-76
2023/06/06 01:49:34;;;;;;;9.05;4.43;;;13.90;62.50;;;;;;4933374;28;20051;-76
2023/06/06 01:52:03;;;;;;;8.65;4.07;;;13.80;62.60;;;;;;4978755;28;20051;-76
2023/06/06 01:54:34;;;;;;;10.05;4.15;;;13.80;62.90;;;;;;4983476;28;20058;-76
2023/06/06 01:57:01;;;;;;;10.43;4.50;;;13.70;62.90;;;;;;4964116;28;20051;-76
2023/06/06 01:59:29;;;;;;;8.90;4.18;;;13.70;63.10;;;;;;4975786;28;20812;-75
2023/06/06 02:01:56;;;;;;;10.38;4.38;;;13.60;63.20;;;;;;4939165;28;20047;-75
2023/06/06 02:04:23;;;;;;;8.57;4.43;;;13.60;63.20;;;;;;5001152;28;20043;-76
2023/06/06 02:06:51;;;;;;;11.25;4.20;;;13.60;63.20;;;;;;4986192;28;20138;-75
2023/06/06 02:09:19;;;;;;;8.67;4.20;;;13.60;63.10;;;;;;4970114;28;20047;-76
2023/06/06 02:11:46;;;;;;;10.82;4.45;;;13.60;63.30;;;;;;4985975;28;20259;-76
2023/06/06 02:14:15;;;;;;;9.65;4.20;;;13.50;63.20;;;;;;4986025;28;20056;-75
2023/06/06 02:16:45;;;;;;;9.95;4.25;;;13.50;63.50;;;;;;4967305;28;20047;-76
2023/06/06 02:19:12;;;;;;;8.95;4.25;;;13.50;63.50;;;;;;4955133;28;20055;-76
2023/06/06 02:21:39;;;;;;;10.23;4.73;;;13.50;63.50;;;;;;4969263;28;20055;-75
2023/06/06 02:24:07;;;;;;;8.40;4.28;;;13.50;63.40;;;;;;4964027;28;20258;-75
2023/06/06 02:26:36;;;;;;;8.70;3.85;;;13.50;63.40;;;;;;4969735;28;21028;-76
2023/06/06 02:29:05;;;;;;;8.82;4.15;;;13.50;63.70;;;;;;4965746;28;20126;-76
2023/06/06 02:31:32;;;;;;;9.93;4.50;;;13.50;63.50;;;;;;4978133;28;20077;-75
2023/06/06 02:33:59;;;;;;;11.40;4.30;;;13.40;63.60;;;;;;4963872;28;20048;-75
2023/06/06 02:36:29;;;;;;;8.38;3.85;;;13.40;63.50;;;;;;4948994;28;20272;-76
2023/06/06 02:38:57;;;;;;;9.73;4.47;;;13.40;63.40;;;;;;4948429;28;20116;-76
2023/06/06 02:41:26;;;;;;;9.80;4.10;;;13.30;63.50;;;;;;4968794;28;20058;-76
2023/06/06 02:43:54;;;;;;;7.43;3.60;;;13.30;63.30;;;;;;4969201;28;20071;-76
2023/06/06 02:46:21;;;;;;;9.00;4.53;;;13.30;63.10;;;;;;4984778;28;20058;-76
2023/06/06 02:48:49;;;;;;;9.32;4.10;;;13.30;62.80;;;;;;4985157;28;20771;-76
2023/06/06 02:51:17;;;;;;;10.90;4.32;;;13.30;63.10;;;;;;4985477;28;20051;-76
2023/06/06 02:53:44;;;;;;;11.07;4.50;;;13.30;63.20;;;;;;4956296;28;20046;-75
2023/06/06 02:56:12;;;;;;;10.10;4.55;;;13.20;63.20;;;;;;4985699;28;20150;-75
2023/06/06 02:58:39;;;;;;;10.33;4.40;;;13.20;63.40;;;;;;4964618;28;20087;-76
2023/06/06 03:01:09;;;;;;;10.93;4.80;;;13.20;63.50;;;;;;4984754;28;20256;-76
2023/06/06 03:03:36;;;;;;;16.67;5.00;;;13.10;63.70;;;;;;4968982;28;20059;-76
2023/06/06 03:06:03;;;;;;;13.40;4.57;;;13.10;63.90;;;;;;4968981;28;20050;-75
2023/06/06 03:08:30;;;;;;;10.05;4.45;;;13.10;64.00;;;;;;4968869;28;20054;-75
2023/06/06 03:10:57;;;;;;;11.33;4.17;;;13.10;64.20;;;;;;4977870;28;20122;-76
2023/06/06 03:13:24;;;;;;;9.50;4.55;;;13.10;64.20;;;;;;4984758;28;20268;-76
2023/06/06 03:15:52;;;;;;;10.10;4.82;;;13.00;64.30;;;;;;4969442;28;20051;-76
2023/06/06 03:18:21;;;;;;;8.70;4.40;;;13.00;64.30;;;;;;4972704;28;20671;-76
2023/06/06 03:20:53;;;;;;;9.02;4.15;;;13.00;64.50;;;;;;4965319;28;20498;-76
2023/06/06 03:23:22;;;;;;;9.70;4.43;;;13.00;64.50;;;;;;4984717;28;20518;-75
2023/06/06 03:25:51;;;;;;;10.07;4.53;;;12.90;64.60;;;;;;4984377;28;20335;-76
2023/06/06 03:28:20;;;;;;;12.27;4.68;;;12.90;65.00;;;;;;4959042;28;20055;-76
2023/06/06 03:30:48;;;;;;;10.93;4.50;;;12.90;64.90;;;;;;4965538;28;20056;-76
2023/06/06 03:33:16;;;;;;;10.30;4.60;;;12.90;65.10;;;;;;4960860;28;20547;-76
2023/06/06 03:35:46;;;;;;;10.93;4.40;;;12.90;65.30;;;;;;4984791;28;20513;-76
2023/06/06 03:38:14;;;;;;;10.13;4.57;;;12.90;65.30;;;;;;4970198;28;20762;-76
2023/06/06 03:40:44;;;;;;;10.75;4.85;;;12.80;65.30;;;;;;4959661;28;20485;-76
2023/06/06 03:43:11;;;;;;;9.75;4.72;;;12.80;65.30;;;;;;4952000;28;20050;-76
2023/06/06 03:45:41;;;;;;;10.20;4.60;;;12.80;65.20;;;;;;4968667;28;20490;-76
2023/06/06 03:48:09;;;;;;;10.77;4.57;;;12.80;65.20;;;;;;4966246;28;20502;-76
2023/06/06 03:50:36;;;;;;;10.13;4.68;;;12.80;65.10;;;;;;4969775;28;20754;-76
2023/06/06 03:53:05;;;;;;;8.45;4.65;;;12.80;65.10;;;;;;4984794;28;20048;-75
2023/06/06 03:55:33;;;;;;;11.65;4.90;;;12.80;65.40;;;;;;4984513;28;20134;-76
2023/06/06 03:58:00;;;;;;;9.68;4.32;;;12.70;65.30;;;;;;4948464;28;20717;-76
2023/06/06 04:00:27;;;;;;;10.10;4.67;;;12.70;65.30;;;;;;4964468;28;20138;-76
2023/06/06 04:02:54;;;;;;;10.50;4.80;;;12.70;65.60;;;;;;4984553;28;20271;-76
2023/06/06 04:05:23;;;;;;;9.43;4.75;;;12.70;66.10;;;;;;4984343;28;20143;-76
2023/06/06 04:07:50;;;;;;;11.82;4.80;;;12.70;66.10;;;;;;4969599;28;20051;-76
2023/06/06 04:10:19;;;;;;;10.20;4.57;;;12.70;65.90;;;;;;4984674;28;20569;-76
2023/06/06 04:12:47;;;;;;;11.47;4.80;;;12.70;66.30;;;;;;4969303;28;20508;-76
2023/06/06 04:15:16;;;;;;;11.18;5.15;;;12.60;66.00;;;;;;4967288;28;20286;-76
2023/06/06 04:17:43;;;;;;;10.70;5.00;;;12.70;66.10;;;;;;4948656;28;20048;-76
2023/06/06 04:20:11;;;;;;;8.45;4.55;;;12.60;66.50;;;;;;4967504;28;20557;-76
2023/06/06 04:22:38;;;;;;;12.80;4.55;;;12.50;66.60;;;;;;4984157;28;20051;-75
2023/06/06 04:25:07;;;;;;;11.50;4.30;;;12.60;66.90;;;;;;4937090;28;20141;-76
2023/06/06 04:27:37;;;;;;;9.85;4.70;;;12.60;66.50;;;;;;4952015;28;20343;-76
2023/06/06 04:30:05;;;;;;;10.60;4.43;;;12.60;67.10;;;;;;4964320;28;20047;-76
2023/06/06 04:32:32;;;;;;;10.07;4.15;;;12.50;67.20;;;;;;4983764;28;20422;-76
2023/06/06 04:34:59;;;;;;;13.85;4.85;;;12.50;67.20;;;;;;4967268;28;20206;-77
2023/06/06 04:37:32;;;;;;;12.73;5.00;;;12.50;67.10;;;;;;4966798;28;20055;-76
2023/06/06 04:40:00;;;;;;;11.32;4.53;;;12.50;67.70;;;;;;4928105;28;20263;-76
2023/06/06 04:42:32;;;;;;;8.82;4.18;;;12.50;67.90;;;;;;4983510;28;20134;-77
2023/06/06 04:45:02;;;;;;;9.98;4.45;;;12.50;67.80;;;;;;4999988;28;20055;-75
2023/06/06 04:47:29;;;;;;;9.40;4.03;;;12.50;67.50;;;;;;4977273;28;20506;-76
2023/06/06 04:49:58;;;;;;;9.33;4.43;;;12.50;67.70;;;;;;4969401;28;20498;-76
2023/06/06 04:52:25;;;;;;;11.20;4.10;;;12.50;67.90;;;;;;4967064;28;20263;-76
2023/06/06 04:54:55;;;;;;;10.75;4.22;;;12.50;67.70;;;;;;4984005;28;20138;-76
2023/06/06 04:57:23;;;;;;;10.85;4.15;;;12.50;67.90;;;;;;4984086;28;20232;-76
2023/06/06 04:59:52;;;;;;;10.18;4.07;;;12.50;68.50;;;;;;4983104;28;20514;-76
2023/06/06 05:02:21;;;;;;;11.20;4.30;;;12.60;68.50;;;;;;4979233;28;20922;-77
2023/06/06 05:04:49;;;;;;;8.27;3.90;;;12.60;69.40;;;;;;4982504;28;20268;-77
2023/06/06 05:07:16;;;;;;;10.18;4.13;;;12.60;69.10;;;;;;4975911;28;20055;-76
2023/06/06 05:09:43;;;;;;;9.77;3.70;;;12.60;69.60;;;;;;4968951;28;21009;-76
2023/06/06 05:12:11;;;;;;;8.60;3.70;;;12.60;70.10;;;;;;4983683;28;20544;-76
2023/06/06 05:14:38;;;;;;;10.67;3.83;;;12.70;70.10;;;;;;4968901;28;20141;-76
2023/06/06 05:17:06;;;;;;;12.32;4.32;;;12.70;70.60;;;;;;4969005;28;20771;-76
2023/06/06 05:19:34;;;;;;;9.93;4.07;;;12.70;70.90;;;;;;4967927;28;20061;-77
2023/06/06 05:22:01;;;;;;;10.88;3.92;;;12.70;71.10;;;;;;4948166;28;20051;-76
2023/06/06 05:24:28;;;;;;;8.18;3.63;;;12.70;70.70;;;;;;4983239;28;20490;-76
2023/06/06 05:26:55;;;;;;;10.13;3.63;;;12.70;71.20;;;;;;4983619;28;20055;-76
2023/06/06 05:29:25;;;;;;;10.25;3.90;;;12.80;71.00;;;;;;4982580;28;20283;-76
2023/06/06 05:31:52;;;;;;;11.60;3.67;;;12.80;71.30;;;;;;4977262;28;20076;-76
2023/06/06 05:34:19;;;;;;;10.50;3.40;;;12.80;71.50;;;;;;4974786;28;20707;-77
2023/06/06 05:36:48;;;;;;;8.95;3.65;;;12.80;71.70;;;;;;4970539;28;20091;-77
2023/06/06 05:39:15;;;;;;;9.20;4.13;;;12.80;71.70;;;;;;4977792;28;20134;-77
2023/06/06 05:41:44;;;;;;;13.35;3.95;;;12.90;71.80;;;;;;4977654;28;20275;-76
2023/06/06 05:44:12;;;;;;;8.63;3.92;;;12.90;72.20;;;;;;4962396;28;20097;-76
2023/06/06 05:46:39;;;;;;;9.40;3.60;;;12.90;72.20;;;;;;4965104;28;20932;-77
2023/06/06 05:49:06;;;;;;;8.93;3.90;;;12.90;72.20;;;;;;4982571;28;20070;-76
2023/06/06 05:51:34;;;;;;;13.63;4.27;;;13.00;72.40;;;;;;4952105;28;20403;-77
2023/06/06 05:54:02;;;;;;;10.65;4.40;;;13.00;72.70;;;;;;4969636;28;20283;-77
2023/06/06 05:56:29;;;;;;;10.65;4.25;;;13.00;73.00;;;;;;4968314;28;20052;-76
2023/06/06 05:58:56;;;;;;;8.82;4.20;;;13.00;72.40;;;;;;4954076;28;20526;-77
2023/06/06 06:01:24;;;;;;;12.75;3.80;;;13.10;72.60;;;;;;4984375;28;20085;-77
2023/06/06 06:03:52;;;;;;;9.93;4.00;;;13.10;72.40;;;;;;4985650;28;20057;-77
2023/06/06 06:06:20;;;;;;;10.68;3.95;;;13.10;72.80;;;;;;4969119;28;20274;-77
2023/06/06 06:08:49;;;;;;;9.95;3.65;;;13.10;72.60;;;;;;4950221;28;20074;-77
2023/06/06 06:11:19;;;;;;;8.45;3.60;;;13.20;72.20;;;;;;4952949;28;20123;-77
2023/06/06 06:13:46;;;;;;;8.45;3.50;;;13.20;72.30;;;;;;4970118;28;20054;-77
2023/06/06 06:16:13;;;;;;;11.50;4.57;;;13.30;72.70;;;;;;4969332;28;20672;-77
2023/06/06 06:18:40;;;;;;;10.50;3.70;;;13.30;72.70;;;;;;4951998;28;20778;-76
2023/06/06 06:21:07;;;;;;;8.85;3.80;;;13.30;72.90;;;;;;4964982;28;20143;-77
2023/06/06 06:23:34;;;;;;;8.35;3.50;;;13.40;73.00;;;;;;4969026;28;20055;-77
2023/06/06 06:26:01;;;;;;;9.73;4.38;;;13.40;73.00;;;;;;4969662;28;20138;-77
2023/06/06 06:28:31;;;;;;;8.93;3.90;;;13.50;72.90;;;;;;4968339;28;20134;-77
2023/06/06 06:30:58;;;;;;;12.48;4.20;;;13.50;73.20;;;;;;4970769;28;20319;-77
2023/06/06 06:33:25;;;;;;;13.40;3.88;;;13.50;72.90;;;;;;4953010;28;21087;-77
2023/06/06 06:35:52;;;;;;;8.43;3.97;;;13.60;73.00;;;;;;4952811;28;20548;-77
2023/06/06 06:38:20;;;;;;;11.32;4.00;;;13.60;73.10;;;;;;4970657;28;20106;-77
2023/06/06 06:40:47;;;;;;;10.87;4.17;;;13.70;73.30;;;;;;4969959;28;20055;-77
2023/06/06 06:43:15;;;;;;;9.75;3.83;;;13.70;73.30;;;;;;4949810;28;20362;-77
2023/06/06 06:45:50;;;;;;;9.35;3.80;;;13.70;73.20;;;;;;4952812;28;20047;-77
2023/06/06 06:48:17;;;;;;;9.55;3.97;;;13.80;73.30;;;;;;4964891;28;20066;-77
2023/06/06 06:50:45;;;;;;;10.65;3.70;;;13.90;73.20;;;;;;4978648;28;20781;-79
2023/06/06 06:53:13;;;;;;;10.03;3.87;;;13.90;73.20;;;;;;4952639;28;21739;-79
2023/06/06 06:55:41;;;;;;;9.95;3.83;;;13.90;73.10;;;;;;4973629;28;20812;-79
2023/06/06 06:58:08;;;;;;;12.10;3.78;;;13.90;73.10;;;;;;4971040;28;20043;-79
2023/06/06 07:00:35;;;;;;;11.13;4.03;;;14.00;73.20;;;;;;4948976;28;20086;-79
2023/06/06 07:03:04;;;;;;;8.32;3.67;;;14.00;73.20;;;;;;4945152;28;20064;-80
2023/06/06 07:05:31;;;;;;;9.83;4.20;;;14.10;73.40;;;;;;4932319;28;20051;-79
2023/06/06 07:07:59;;;;;;;11.32;4.30;;;14.10;73.10;;;;;;4954655;28;20252;-80
2023/06/06 07:10:28;;;;;;;9.63;3.83;;;14.20;73.00;;;;;;4970187;28;20541;-79
2023/06/06 07:12:56;;;;;;;13.15;4.32;;;14.20;73.20;;;;;;4985546;28;20062;-80
2023/06/06 07:15:27;;;;;;;9.73;3.80;;;14.30;73.10;;;;;;4984068;28;20110;-80
2023/06/06 07:17:54;;;;;;;11.43;4.50;;;14.40;73.20;;;;;;4984353;28;20052;-80
2023/06/06 07:20:23;;;;;;;11.07;3.75;;;14.40;73.30;;;;;;4969669;28;20295;-80
2023/06/06 07:22:53;;;;;;;9.60;3.90;;;14.40;73.20;;;;;;4984530;28;20047;-79
2023/06/06 07:25:20;;;;;;;9.82;3.95;;;14.50;73.00;;;;;;4986446;28;20051;-80
2023/06/06 07:27:47;;;;;;;11.00;4.00;;;14.50;73.10;;;;;;4957974;28;20098;-80
2023/06/06 07:30:15;;;;;;;8.57;3.70;;;14.60;73.00;;;;;;4993055;28;20052;-80
2023/06/06 07:32:43;;;;;;;8.93;3.60;;;14.60;73.00;;;;;;4971430;28;20286;-80
2023/06/06 07:35:11;;;;;;;9.02;3.45;;;14.70;72.90;;;;;;4967694;28;20122;-79
2023/06/06 07:37:40;;;;;;;10.50;4.10;;;14.70;72.70;;;;;;4950783;28;20081;-76
2023/06/06 07:40:08;;;;;;;9.52;3.97;;;14.80;72.60;;;;;;4966309;28;20147;-77
2023/06/06 07:42:36;;;;;;;8.83;3.77;;;14.80;72.80;;;;;;4981057;28;20563;-79
2023/06/06 07:45:03;;;;;;;10.40;3.70;;;14.90;72.80;;;;;;4951692;28;20262;-79
2023/06/06 07:47:30;;;;;;;8.73;3.80;;;15.00;72.70;;;;;;4981291;28;20154;-79
2023/06/06 07:49:58;;;;;;;9.35;3.22;;;15.00;72.50;;;;;;4968522;28;20056;-79
2023/06/06 07:52:26;;;;;;;10.90;4.30;;;15.00;72.10;;;;;;4983363;28;20044;-79
2023/06/06 07:54:54;;;;;;;9.80;3.50;;;15.10;72.40;;;;;;4957528;28;20051;-79
2023/06/06 07:57:21;;;;;;;11.15;3.63;;;15.20;72.50;;;;;;4969728;28;20291;-79
2023/06/06 07:59:49;;;;;;;8.55;3.55;;;15.20;72.10;;;;;;4968355;28;20059;-79
2023/06/06 08:02:16;;;;;;;9.48;4.07;;;15.30;72.10;;;;;;4982624;28;20059;-79
2023/06/06 08:04:45;;;;;;;8.02;3.72;;;15.30;71.90;;;;;;4978640;28;20047;-80
2023/06/06 08:07:13;;;;;;;10.03;3.60;;;15.40;72.20;;;;;;4982643;28;20051;-79
2023/06/06 08:09:41;;;;;;;11.77;3.97;;;15.40;72.20;;;;;;4968764;28;20267;-79
2023/06/06 08:12:11;;;;;;;11.07;4.13;;;15.50;72.10;;;;;;4982276;28;20043;-80
2023/06/06 08:14:38;;;;;;;10.43;3.83;;;15.50;72.10;;;;;;4983180;28;20051;-79
2023/06/06 08:17:07;;;;;;;8.50;3.00;;;15.60;71.80;;;;;;4970032;28;20047;-80
2023/06/06 08:19:34;;;;;;;7.43;3.23;;;15.60;71.60;;;;;;4984643;28;20561;-80
2023/06/06 08:22:02;;;;;;;8.13;3.47;;;15.70;71.60;;;;;;4969584;28;20398;-80
2023/06/06 08:24:29;;;;;;;9.52;3.50;;;15.80;71.50;;;;;;4985114;28;20063;-79
2023/06/06 08:26:57;;;;;;;9.27;3.35;;;15.80;71.80;;;;;;4971496;28;20092;-80
2023/06/06 08:29:25;;;;;;;9.40;3.50;;;15.80;71.70;;;;;;4977654;23;20307;-80
2023/06/06 08:31:53;;;;;;;7.87;3.70;;;16.00;71.60;;;;;;4967458;28;20600;-78
2023/06/06 08:34:20;;;;;;;8.05;3.30;;;16.00;71.20;;;;;;4962317;28;20255;-78
2023/06/06 08:36:48;;;;;;;8.82;3.47;;;16.00;71.20;;;;;;4968340;28;20051;-77
2023/06/06 08:39:15;;;;;;;7.60;3.13;;;16.10;71.20;;;;;;4965972;28;20043;-78
2023/06/06 08:41:49;;;;;;;9.73;3.08;;;16.10;71.10;;;;;;4965933;28;20107;-78
2023/06/06 08:44:17;;;;;;;8.57;3.60;;;16.20;70.80;;;;;;4963948;28;20055;-78
2023/06/06 08:46:48;;;;;;;10.55;3.00;;;16.20;70.60;;;;;;4957547;28;20332;-78
2023/06/06 08:49:17;;;;;;;9.00;3.72;;;16.40;70.50;;;;;;4970631;28;20845;-78
2023/06/06 08:51:45;;;;;;;8.68;3.65;;;16.40;70.30;;;;;;4966849;28;20130;-78
2023/06/06 08:54:13;;;;;;;7.22;3.85;;;16.40;70.10;;;;;;4969216;28;20053;-78
2023/06/06 08:56:43;;;;;;;11.37;3.30;;;16.50;69.80;;;;;;4967621;28;20078;-78
2023/06/06 08:59:11;;;;;;;7.35;3.60;;;16.50;69.70;;;;;;4967485;28;20319;-78
2023/06/06 09:01:38;;;;;;;9.68;3.30;;;16.50;69.80;;;;;;4967217;28;20059;-78
2023/06/06 09:04:08;;;;;;;8.15;3.40;;;16.60;69.60;;;;;;4967485;28;20061;-78
2023/06/06 09:06:38;;;;;;;8.52;3.30;;;16.70;69.30;;;;;;4964081;28;20478;-78
2023/06/06 09:09:11;;;;;;;9.23;3.40;;;16.70;69.10;;;;;;4973021;28;20051;-78
2023/06/06 09:11:44;;;;;;;9.75;3.80;;;16.80;69.60;;;;;;4994186;28;20322;-78
2023/06/06 09:14:11;;;;;;;7.93;3.88;;;16.80;69.40;;;;;;4968019;28;20063;-78
2023/06/06 09:16:40;;;;;;;7.63;3.35;;;16.90;69.20;;;;;;4967164;28;20051;-78
2023/06/06 09:19:09;;;;;;;7.95;3.80;;;17.00;69.00;;;;;;4950759;28;20044;-79
2023/06/06 09:21:36;;;;;;;8.83;3.70;;;17.00;68.90;;;;;;4967134;28;20059;-78
2023/06/06 09:24:04;;;;;;;8.07;3.20;;;17.00;68.90;;;;;;4968960;28;20252;-78
2023/06/06 09:26:34;;;;;;;8.85;3.90;;;17.10;69.10;;;;;;4968952;28;20054;-79
2023/06/06 09:29:07;;;;;;;9.10;3.92;;;17.20;69.00;;;;;;4970017;28;20048;-78
2023/06/06 09:31:38;;;;;;;10.60;4.28;;;17.20;68.80;;;;;;4973746;28;20055;-78
2023/06/06 09:34:08;;;;;;;15.57;4.20;;;17.40;68.60;;;;;;4972000;28;20047;-79
2023/06/06 09:36:38;;;;;;;6.75;3.28;;;17.40;68.30;;;;;;4975441;28;20267;-79
2023/06/06 09:39:11;;;;;;;9.45;3.78;;;17.50;68.10;;;;;;4957261;28;20047;-78
2023/06/06 09:41:56;;;;;;;7.30;3.55;;;17.50;68.30;;;;;;4969128;28;20101;-79
2023/06/06 09:44:25;;;;;;;9.85;4.22;;;17.60;68.10;;;;;;4973177;28;20055;-78
2023/06/06 09:46:59;;;;;;;8.10;3.80;;;17.70;67.80;;;;;;4961824;28;20058;-78
2023/06/06 09:49:32;;;;;;;11.32;4.10;;;17.80;67.50;;;;;;4970415;28;20255;-78
2023/06/06 09:51:59;;;;;;;7.60;4.00;;;17.80;67.40;;;;;;4970255;28;20058;-79
2023/06/06 09:54:27;;;;;;;6.25;3.30;;;18.00;67.10;;;;;;4970990;28;20047;-79
2023/06/06 09:56:56;;;;;;;9.90;4.13;;;18.00;67.00;;;;;;4971938;28;20049;-79
2023/06/06 09:59:25;;;;;;;9.30;4.33;;;18.00;66.90;;;;;;4978722;28;20142;-79
2023/06/06 10:01:58;;;;;;;9.05;3.40;;;18.10;66.70;;;;;;4963837;28;20291;-79
2023/06/06 10:04:27;;;;;;;8.07;3.80;;;18.20;66.60;;;;;;4970041;28;20166;-78
2023/06/06 10:06:57;;;;;;;7.10;3.13;;;18.20;66.50;;;;;;4970312;28;20054;-79
2023/06/06 10:09:24;;;;;;;7.97;3.88;;;18.30;66.40;;;;;;4964716;28;20062;-79
2023/06/06 10:11:51;;;;;;;9.17;3.70;;;18.30;66.10;;;;;;4961580;28;20154;-79
2023/06/06 10:14:20;;;;;;;8.57;3.75;;;18.40;66.30;;;;;;4971506;28;20349;-79
2023/06/06 10:16:47;;;;;;;9.50;4.03;;;18.50;66.20;;;;;;4970042;28;20063;-79
2023/06/06 10:19:14;;;;;;;8.43;3.42;;;18.50;66.00;;;;;;4969732;28;20513;-78
2023/06/06 10:21:45;;;;;;;9.60;3.85;;;18.60;65.50;;;;;;4969402;28;20051;-79
2023/06/06 10:24:12;;;;;;;10.23;4.37;;;18.70;65.60;;;;;;4971153;28;20126;-79
2023/06/06 10:26:47;;;;;;;31.38;5.70;;;18.70;65.70;;;;;;4951838;28;20343;-79
2023/06/06 10:29:22;;;;;;;10.55;4.45;;;18.80;65.80;;;;;;4965451;28;20081;-79
2023/06/06 10:31:56;;;;;;;8.98;4.15;;;18.90;65.50;;;;;;4967819;28;20049;-79
2023/06/06 10:34:26;;;;;;;17.80;5.00;;;19.00;65.40;;;;;;4968749;28;20059;-78
2023/06/06 10:36:57;;;;;;;10.77;4.53;;;19.10;65.20;;;;;;4969329;28;20055;-79
2023/06/06 10:39:25;;;;;;;9.07;4.20;;;19.10;65.10;;;;;;4951795;28;20260;-78
2023/06/06 10:41:54;;;;;;;7.78;3.95;;;19.20;65.00;;;;;;4967733;28;20059;-79
2023/06/06 10:44:35;;;;;;;9.90;4.00;;;19.20;64.70;;;;;;4970249;28;20577;-79
2023/06/06 10:47:27;;;;;;;10.50;4.53;;;19.30;64.30;;;;;;4969413;28;20075;-79
2023/06/06 10:50:23;;;;;;;7.83;4.13;;;19.40;63.70;;;;;;4964639;28;20086;-78
2023/06/06 10:52:53;;;;;;;9.80;4.20;;;19.50;63.80;;;;;;4961859;28;20294;-78
2023/06/06 10:55:41;;;;;;;9.95;4.60;;;19.50;63.80;;;;;;4960722;28;20059;-78
2023/06/06 10:58:13;;;;;;;9.75;4.10;;;19.60;63.10;;;;;;4974391;28;20164;-78
2023/06/06 11:00:42;;;;;;;8.05;3.50;;;19.70;62.90;;;;;;4966185;28;20056;-78
2023/06/06 11:03:10;;;;;;;12.97;4.50;;;19.70;63.20;;;;;;4980740;28;20540;-78
2023/06/06 11:06:05;;;;;;;9.00;3.95;;;19.80;63.30;;;;;;4954244;28;20354;-78
2023/06/06 11:08:34;;;;;;;9.13;4.10;;;19.90;63.20;;;;;;4963897;28;20058;-78
2023/06/06 11:11:22;;;;;;;12.00;4.28;;;19.90;62.70;;;;;;4959996;28;20108;-77
2023/06/06 11:13:56;;;;;;;9.43;4.43;;;20.00;62.50;;;;;;4964111;28;20058;-76
2023/06/06 11:16:48;;;;;;;9.37;4.67;;;20.00;62.20;;;;;;4952415;28;20044;-77
2023/06/06 11:19:19;;;;;;;10.13;4.20;;;20.10;62.30;;;;;;4949503;28;20359;-76
2023/06/06 11:21:47;;;;;;;9.15;4.60;;;20.20;62.40;;;;;;4959170;28;20046;-78
2023/06/06 11:24:18;;;;;;;11.23;5.00;;;20.30;61.80;;;;;;4939395;28;20130;-76
2023/06/06 11:26:47;;;;;;;10.13;4.53;;;20.30;61.70;;;;;;4959405;28;20055;-77
2023/06/06 11:29:13;;;;;;;10.23;4.53;;;20.40;62.10;;;;;;4965223;28;20066;-78
2023/06/06 11:31:41;;;;;;;8.85;4.32;;;20.50;62.00;;;;;;4966513;28;20252;-77
2023/06/06 11:34:10;;;;;;;16.70;4.60;;;20.50;61.60;;;;;;4960656;28;20058;-77
2023/06/06 11:36:39;;;;;;;10.77;4.20;;;20.60;61.50;;;;;;4966190;28;20534;-77
2023/06/06 11:39:07;;;;;;;11.98;3.95;;;20.60;61.40;;;;;;4964903;28;20051;-77
2023/06/06 11:41:37;;;;;;;9.40;4.57;;;20.70;61.40;;;;;;4966566;28;20174;-77
2023/06/06 11:44:05;;;;;;;9.02;4.03;;;20.80;60.70;;;;;;4966920;28;20789;-77
2023/06/06 11:46:44;;;;;;;6.97;3.90;;;20.80;60.60;;;;;;4969848;28;20078;-77
2023/06/06 11:49:11;;;;;;;9.10;4.13;;;20.90;60.40;;;;;;4949938;28;20044;-78
2023/06/06 11:51:38;;;;;;;10.63;4.35;;;21.00;60.40;;;;;;4964858;28;20182;-77
2023/06/06 11:54:13;;;;;;;8.60;4.53;;;21.00;60.50;;;;;;4966343;28;20055;-77
2023/06/06 11:56:42;;;;;;;9.60;3.72;;;21.10;60.40;;;;;;4951488;28;20275;-75
2023/06/06 11:59:11;;;;;;;10.93;4.18;;;21.10;60.30;;;;;;4965749;28;20043;-75
2023/06/06 12:01:49;;;;;;;17.85;5.22;;;21.20;60.10;;;;;;4962213;28;20056;-76
2023/06/06 12:04:18;;;;;;;9.85;4.43;;;21.30;59.70;;;;;;4968312;28;20059;-76
2023/06/06 12:06:49;;;;;;;9.87;4.57;;;21.30;59.70;;;;;;4965860;28;20123;-75
2023/06/06 12:09:18;;;;;;;8.35;3.83;;;21.40;59.40;;;;;;4951516;28;20862;-75
2023/06/06 12:11:54;;;;;;;9.98;4.35;;;21.50;59.50;;;;;;4996085;23;20814;-73
2023/06/06 12:14:22;;;;;;;9.18;4.72;;;21.50;59.40;;;;;;4981520;28;20047;-73
2023/06/06 12:16:49;;;;;;;9.75;4.85;;;21.50;59.00;;;;;;4983383;28;20705;-75
2023/06/06 12:19:17;;;;;;;15.03;5.00;;;21.60;58.70;;;;;;4993873;28;21176;-75
2023/06/06 12:21:46;;;;;;;11.25;4.80;;;21.70;58.60;;;;;;4984953;28;20310;-74
2023/06/06 12:24:17;;;;;;;11.45;4.35;;;21.70;58.30;;;;;;4984962;28;20098;-73
2023/06/06 12:26:51;;;;;;;11.65;5.20;;;21.70;58.50;;;;;;4982404;28;20055;-74
2023/06/06 12:29:20;;;;;;;8.45;4.50;;;21.80;58.40;;;;;;4984676;28;20110;-74
2023/06/06 12:31:49;;;;;;;15.67;5.00;;;21.90;58.00;;;;;;5001059;28;20492;-75
2023/06/06 12:34:16;;;;;;;7.53;4.18;;;21.90;57.90;;;;;;4982775;28;20275;-75
2023/06/06 12:36:44;;;;;;;11.85;4.78;;;22.00;57.90;;;;;;4979031;28;20141;-74
2023/06/06 12:39:13;;;;;;;9.93;4.28;;;22.00;57.40;;;;;;4988440;28;20074;-74
2023/06/06 12:41:42;;;;;;;10.88;4.20;;;22.10;57.60;;;;;;4985895;28;20543;-75
2023/06/06 12:44:11;;;;;;;9.43;4.10;;;22.20;57.80;;;;;;4987718;28;20063;-74
2023/06/06 12:46:40;;;;;;;11.13;4.35;;;22.20;57.20;;;;;;4990132;28;20253;-74
2023/06/06 12:49:08;;;;;;;9.63;4.68;;;22.30;57.40;;;;;;4986857;28;20047;-74
2023/06/06 12:51:37;;;;;;;8.57;4.15;;;22.30;57.00;;;;;;4986853;28;20049;-74